createdAt,value
2018-12-31T00:08:00.671Z,45.9
2018-12-31T00:18:18.687Z,30.5
2018-12-31T00:29:17.130Z,26.0
2018-12-31T00:39:30.847Z,33.1
2018-12-31T00:50:53.131Z,37.5
2018-12-31T01:01:30.833Z,40.1
2018-12-31T01:11:44.607Z,26.0
2018-12-31T01:22:31.143Z,37.5
2018-12-31T01:32:44.697Z,38.2
2018-12-31T01:43:29.203Z,39.9
2018-12-31T01:53:42.660Z,31.7
2018-12-31T02:03:55.920Z,30.8
2018-12-31T02:14:08.970Z,34.0
2018-12-31T02:24:22.203Z,32.0
2018-12-31T02:34:35.560Z,30.2
2018-12-31T02:44:49.485Z,33.7
2018-12-31T02:55:02.806Z,30.8
2018-12-31T03:05:14.001Z,36.6
2018-12-31T03:15:27.118Z,43.3
2018-12-31T03:25:40.378Z,36.1
2018-12-31T03:35:53.765Z,41.7
2018-12-31T03:46:07.692Z,36.1
2018-12-31T03:56:20.921Z,30.0
2018-12-31T04:06:35.353Z,38.5
2018-12-31T04:16:48.431Z,32.1
2018-12-31T04:26:59.907Z,34.0
2018-12-31T04:37:13.291Z,33.1
2018-12-31T04:47:26.584Z,34.2
2018-12-31T04:58:11.109Z,43.5
2018-12-31T05:08:24.631Z,41.7
2018-12-31T05:18:37.829Z,32.2
2018-12-31T05:28:50.910Z,38.4
2018-12-31T05:39:40.045Z,36.6
2018-12-31T05:49:53.303Z,46.4
2018-12-31T06:00:06.481Z,30.0
2018-12-31T06:10:51.234Z,36.1
2018-12-31T06:21:41.993Z,35.6
2018-12-31T06:31:55.317Z,32.1
2018-12-31T06:42:09.675Z,29.4
2018-12-31T06:52:23.630Z,36.5
2018-12-31T07:02:37.096Z,33.9
2018-12-31T07:12:51.305Z,27.7
2018-12-31T07:23:05.354Z,32.7
2018-12-31T07:33:18.628Z,28.8
2018-12-31T07:43:32.665Z,27.3
2018-12-31T07:53:46.009Z,38.1
2018-12-31T08:03:59.131Z,30.3
2018-12-31T08:14:12.658Z,32.0
2018-12-31T08:24:26.015Z,25.6
2018-12-31T08:34:40.134Z,37.5
2018-12-31T08:44:53.383Z,30.0
2018-12-31T08:55:06.594Z,28.3
2018-12-31T09:05:19.976Z,35.4
2018-12-31T09:15:32.852Z,29.1
2018-12-31T09:25:46.592Z,31.8
2018-12-31T09:36:01.057Z,43.5
2018-12-31T09:46:13.256Z,38.4
2018-12-31T09:56:27.347Z,40.9
2018-12-31T12:12:24.036Z,54.3
2018-12-31T12:36:56.279Z,34.6
2018-12-31T15:27:40.300Z,48.4
2018-12-31T16:08:17.542Z,38.2
2018-12-31T16:18:33.338Z,31.9
2018-12-31T16:28:55.753Z,28.2
2018-12-31T16:39:11.356Z,39.5
2018-12-31T16:49:28.867Z,30.6
2018-12-31T16:59:46.224Z,29.8
2018-12-31T17:10:13.155Z,28.2
2018-12-31T17:20:33.554Z,29.5
2018-12-31T17:30:49.292Z,47.4
2018-12-31T17:41:05.659Z,50.0
2018-12-31T17:51:24.532Z,48.0
2018-12-31T18:01:47.298Z,37.6
2018-12-31T18:12:06.438Z,44.6
2018-12-31T18:22:57.396Z,49.9
2018-12-31T18:33:15.510Z,46.4
2018-12-31T18:43:49.150Z,45.5
2018-12-31T18:54:03.963Z,42.5
2018-12-31T19:04:19.151Z,41.2
2018-12-31T19:15:06.712Z,42.6
2018-12-31T19:25:20.879Z,35.7
2018-12-31T19:35:51.288Z,38.2
2018-12-31T19:46:40.124Z,42.1
2018-12-31T19:56:56.302Z,34.9
2018-12-31T20:07:17.884Z,46.0
2018-12-31T20:17:30.525Z,40.7
2018-12-31T20:27:45.900Z,45.5
2018-12-31T20:38:34.492Z,45.5
2018-12-31T20:48:53.583Z,39.2
2018-12-31T20:59:09.526Z,39.6
2018-12-31T21:09:28.887Z,54.9
2018-12-31T21:20:16.368Z,51.7
2018-12-31T21:30:27.915Z,43.0
2018-12-31T21:41:12.743Z,61.5
2018-12-31T21:51:24.086Z,53.6
2018-12-31T22:02:08.403Z,44.0
2018-12-31T22:12:19.886Z,53.2
2018-12-31T22:22:31.251Z,46.5
2018-12-31T22:32:42.600Z,38.1
2018-12-31T22:43:27.557Z,52.3
2018-12-31T22:53:38.629Z,46.9
2018-12-31T23:04:26.667Z,138.5
2018-12-31T23:14:41.555Z,153.6
2018-12-31T23:25:26.501Z,79.7
2018-12-31T23:35:42.551Z,63.7
2018-12-31T23:45:56.023Z,50.6
2018-12-31T23:56:07.210Z,46.5
